Terminal Aerodrome Forecast
Issued by NWS

Home | Current Version | Previous Version | Text Only | Print | Product List | Glossary On
Versions: 1 2 3 4 5 6 7 8 9 10 11 12 13 14 15 16 17 18 19 20 21 22 23 24 25 26 27 28 29
000
FTUS44 KOHX 271100
TAFCKV
TAF
KCKV 271123Z 2712/2812 15004KT 2SM BR SCT030 BKN250
     FM271300 19007KT P6SM SCT030 BKN250
     FM271400 22009G18KT P6SM BKN250
     FM271800 22009G18KT P6SM VCSH BKN040 BKN250
      TEMPO 2718/2722 3SM TSRA BR BKN015CB OVC025
     FM280000 18003KT P6SM VCSH BKN035
     FM280800 00000KT 2SM BR SCT003=

USA.gov is the U.S. government's official web portal to all federal, state and local government web resources and services.